ANZ111 NZAA-YSSY
Flight info
| Callsign | ANZ111 |
|---|---|
| Flight time | N/A |
| Altitude | 34000 |
| Route | MADEP N774 MARLN |
| Aircraft | A21N/M-SDE2E3FGHIRWXY/LB1 |
Departure
| Time | 2026-05-04 02:38 |
|---|---|
| Airport | Auckland International Airport (NZAA) |
Arrival
| Time | N/A |
|---|---|
| Airport | Sydney Kingsford Smith International Airport (YSSY) |
| Time | Latitude | Longitude | Altitude | Speed | Heading |
|---|---|---|---|---|---|
| 2026-05-04 02:25 | -37.00510 | 174.77786 | 26 ft | 0 kts | 341° |
| 2026-05-04 02:29 | -37.00515 | 174.77788 | 25 ft | 1 kts | 341° |
| 2026-05-04 02:29 | -37.00520 | 174.77790 | 29 ft | 1 kts | 341° |
| 2026-05-04 02:30 | -37.00527 | 174.77793 | 27 ft | 1 kts | 341° |
| 2026-05-04 02:30 | -37.00544 | 174.77800 | 27 ft | 2 kts | 341° |
| 2026-05-04 02:30 | -37.00558 | 174.77806 | 29 ft | 2 kts | 335° |
| 2026-05-04 02:30 | -37.00567 | 174.77812 | 27 ft | 2 kts | 326° |
| 2026-05-04 02:31 | -37.00579 | 174.77823 | 29 ft | 2 kts | 312° |
| 2026-05-04 02:31 | -37.00589 | 174.77837 | 28 ft | 2 kts | 300° |
| 2026-05-04 02:31 | -37.00596 | 174.77853 | 27 ft | 2 kts | 292° |
| 2026-05-04 02:31 | -37.00601 | 174.77871 | 26 ft | 2 kts | 284° |
| 2026-05-04 02:32 | -37.00606 | 174.77893 | 28 ft | 1 kts | 255° |
| 2026-05-04 02:32 | -37.00605 | 174.77899 | 27 ft | 1 kts | 249° |
| 2026-05-04 02:32 | -37.00607 | 174.77893 | 27 ft | 1 kts | 249° |
| 2026-05-04 02:32 | -37.00608 | 174.77888 | 28 ft | 0 kts | 249° |
| 2026-05-04 02:33 | -37.00616 | 174.77862 | 26 ft | 8 kts | 251° |
| 2026-05-04 02:33 | -37.00641 | 174.77768 | 26 ft | 14 kts | 251° |
| 2026-05-04 02:34 | -37.00650 | 174.77737 | 27 ft | 7 kts | 252° |
| 2026-05-04 02:34 | -37.00676 | 174.77640 | 28 ft | 15 kts | 251° |
| 2026-05-04 02:34 | -37.00743 | 174.77542 | 29 ft | 15 kts | 178° |
| 2026-05-04 02:34 | -37.00852 | 174.77591 | 26 ft | 18 kts | 161° |
| 2026-05-04 02:35 | -37.00979 | 174.77644 | 28 ft | 20 kts | 162° |
| 2026-05-04 02:35 | -37.01087 | 174.77691 | 26 ft | 13 kts | 160° |
| 2026-05-04 02:35 | -37.01184 | 174.77733 | 26 ft | 16 kts | 161° |
| 2026-05-04 02:35 | -37.01272 | 174.77692 | 27 ft | 15 kts | 250° |
| 2026-05-04 02:36 | -37.01308 | 174.77555 | 26 ft | 18 kts | 252° |
| 2026-05-04 02:36 | -37.01353 | 174.77392 | 27 ft | 21 kts | 251° |
| 2026-05-04 02:36 | -37.01403 | 174.77210 | 28 ft | 20 kts | 249° |
| 2026-05-04 02:36 | -37.01469 | 174.77104 | 26 ft | 14 kts | 198° |
| 2026-05-04 02:37 | -37.01571 | 174.77082 | 27 ft | 16 kts | 188° |
| 2026-05-04 02:37 | -37.01614 | 174.77143 | 30 ft | 10 kts | 82° |
| 2026-05-04 02:37 | -37.01605 | 174.77178 | 27 ft | 4 kts | 70° |
| 2026-05-04 02:37 | -37.01558 | 174.77343 | 26 ft | 58 kts | 71° |
| 2026-05-04 02:38 | -37.01327 | 174.78166 | 30 ft | 140 kts | 71° |
| 2026-05-04 02:38 | -37.00944 | 174.79571 | 130 ft | 192 kts | 70° |
| 2026-05-04 02:38 | -37.00487 | 174.81141 | 886 ft | 203 kts | 70° |
| 2026-05-04 02:38 | -36.99992 | 174.82839 | 1800 ft | 212 kts | 70° |
| 2026-05-04 02:39 | -36.99486 | 174.84642 | 2445 ft | 231 kts | 71° |
| 2026-05-04 02:39 | -36.98946 | 174.86598 | 3191 ft | 243 kts | 71° |
| 2026-05-04 02:39 | -36.98383 | 174.88647 | 4037 ft | 252 kts | 71° |
| 2026-05-04 02:39 | -36.97807 | 174.90735 | 5071 ft | 256 kts | 71° |
| 2026-05-04 02:40 | -36.97222 | 174.92859 | 6084 ft | 259 kts | 71° |
| 2026-05-04 02:40 | -36.96632 | 174.94998 | 7103 ft | 262 kts | 71° |
| 2026-05-04 02:40 | -36.95958 | 174.97137 | 8015 ft | 268 kts | 60° |
| 2026-05-04 02:40 | -36.94704 | 174.98875 | 8890 ft | 275 kts | 35° |
| 2026-05-04 02:41 | -36.92925 | 174.99788 | 9810 ft | 283 kts | 9° |
| 2026-05-04 02:41 | -36.90970 | 174.99643 | 10690 ft | 291 kts | 343° |
| 2026-05-04 02:41 | -36.89201 | 174.98407 | 11544 ft | 297 kts | 320° |
| 2026-05-04 02:41 | -36.87637 | 174.96680 | 12407 ft | 300 kts | 319° |
| 2026-05-04 02:42 | -36.86081 | 174.94928 | 13288 ft | 303 kts | 319° |
| 2026-05-04 02:42 | -36.84596 | 174.93046 | 14134 ft | 308 kts | 305° |
| 2026-05-04 02:42 | -36.83751 | 174.90614 | 14860 ft | 315 kts | 281° |
| 2026-05-04 02:42 | -36.83705 | 174.87897 | 15534 ft | 322 kts | 266° |
| 2026-05-04 02:43 | -36.83905 | 174.84978 | 15789 ft | 344 kts | 265° |
| 2026-05-04 02:43 | -36.84132 | 174.81954 | 15997 ft | 365 kts | 265° |
| 2026-05-04 02:43 | -36.84361 | 174.78748 | 16472 ft | 374 kts | 266° |
| 2026-05-04 02:43 | -36.84577 | 174.75511 | 17190 ft | 377 kts | 266° |
| 2026-05-04 02:44 | -36.84787 | 174.72212 | 17900 ft | 381 kts | 266° |
| 2026-05-04 02:44 | -36.84993 | 174.68894 | 18571 ft | 385 kts | 266° |
| 2026-05-04 02:44 | -36.85198 | 174.65541 | 19195 ft | 388 kts | 267° |
| 2026-05-04 02:44 | -36.85403 | 174.62165 | 19820 ft | 391 kts | 267° |
| 2026-05-04 02:45 | -36.85609 | 174.58771 | 20414 ft | 394 kts | 267° |
| 2026-05-04 02:45 | -36.85814 | 174.55388 | 21008 ft | 397 kts | 267° |
| 2026-05-04 02:45 | -36.86023 | 174.51941 | 21581 ft | 400 kts | 267° |
| 2026-05-04 02:45 | -36.86234 | 174.48459 | 22146 ft | 403 kts | 267° |
| 2026-05-04 02:46 | -36.86445 | 174.44958 | 22734 ft | 406 kts | 267° |
| 2026-05-04 02:46 | -36.86657 | 174.41431 | 23315 ft | 408 kts | 267° |
| 2026-05-04 02:46 | -36.86869 | 174.37879 | 23881 ft | 411 kts | 267° |
| 2026-05-04 02:46 | -36.87082 | 174.34302 | 24381 ft | 414 kts | 267° |
| 2026-05-04 02:47 | -36.87295 | 174.30725 | 24929 ft | 414 kts | 267° |
| 2026-05-04 02:47 | -36.87507 | 174.27136 | 25443 ft | 415 kts | 267° |
| 2026-05-04 02:47 | -36.87718 | 174.23538 | 25923 ft | 416 kts | 267° |
| 2026-05-04 02:47 | -36.87928 | 174.19931 | 26383 ft | 418 kts | 267° |
| 2026-05-04 02:48 | -36.88140 | 174.16297 | 26861 ft | 419 kts | 267° |
| 2026-05-04 02:48 | -36.88348 | 174.12706 | 27288 ft | 420 kts | 267° |
| 2026-05-04 02:48 | -36.88558 | 174.09056 | 27724 ft | 422 kts | 267° |
| 2026-05-04 02:48 | -36.88769 | 174.05391 | 28144 ft | 423 kts | 267° |
| 2026-05-04 02:49 | -36.88942 | 174.01710 | 28539 ft | 424 kts | 270° |
| 2026-05-04 02:49 | -36.88833 | 173.98032 | 28946 ft | 425 kts | 277° |
| 2026-05-04 02:49 | -36.88402 | 173.94381 | 29317 ft | 425 kts | 282° |
| 2026-05-04 02:49 | -36.87865 | 173.90732 | 29673 ft | 427 kts | 281° |
| 2026-05-04 02:50 | -36.87340 | 173.87088 | 30038 ft | 428 kts | 281° |
| 2026-05-04 02:50 | -36.86812 | 173.83400 | 30327 ft | 431 kts | 281° |
| 2026-05-04 02:50 | -36.86281 | 173.79702 | 30607 ft | 434 kts | 281° |
| 2026-05-04 02:50 | -36.85745 | 173.75977 | 30827 ft | 437 kts | 281° |
| 2026-05-04 02:51 | -36.85205 | 173.72236 | 31082 ft | 439 kts | 281° |
| 2026-05-04 02:51 | -36.84665 | 173.68507 | 31319 ft | 442 kts | 281° |
| 2026-05-04 02:51 | -36.84116 | 173.64721 | 31569 ft | 445 kts | 281° |
| 2026-05-04 02:51 | -36.83561 | 173.60913 | 31815 ft | 447 kts | 281° |
| 2026-05-04 02:52 | -36.83003 | 173.57084 | 32065 ft | 449 kts | 281° |
| 2026-05-04 02:52 | -36.82442 | 173.53249 | 32319 ft | 451 kts | 281° |
| 2026-05-04 02:52 | -36.81877 | 173.49391 | 32572 ft | 452 kts | 281° |
| 2026-05-04 02:52 | -36.81309 | 173.45523 | 32821 ft | 454 kts | 281° |
| 2026-05-04 02:53 | -36.80738 | 173.41647 | 33080 ft | 455 kts | 281° |
| 2026-05-04 02:53 | -36.80162 | 173.37748 | 33342 ft | 455 kts | 281° |
| 2026-05-04 02:53 | -36.79588 | 173.33858 | 33606 ft | 456 kts | 281° |
| 2026-05-04 02:53 | -36.79014 | 173.29960 | 33872 ft | 456 kts | 281° |
| 2026-05-04 02:54 | -36.78441 | 173.26067 | 34137 ft | 456 kts | 281° |
| 2026-05-04 02:54 | -36.77869 | 173.22176 | 34407 ft | 456 kts | 281° |
| 2026-05-04 02:54 | -36.77302 | 173.18327 | 34516 ft | 460 kts | 281° |
| 2026-05-04 02:54 | -36.76711 | 173.14336 | 34499 ft | 464 kts | 281° |
| 2026-05-04 02:55 | -36.74933 | 173.02388 | 34510 ft | 473 kts | 281° |
| 2026-05-04 02:56 | -36.73720 | 172.94293 | 34505 ft | 476 kts | 281° |
| 2026-05-04 02:56 | -36.72495 | 172.86155 | 34505 ft | 478 kts | 281° |
| 2026-05-04 02:57 | -36.71262 | 172.78009 | 34510 ft | 479 kts | 281° |
| 2026-05-04 02:57 | -36.70442 | 172.72607 | 34508 ft | 479 kts | 281° |